createdAt,value
2018-04-30T00:00:51.621Z,100312.54
2018-04-30T00:03:19.997Z,100305.97
2018-04-30T00:05:48.395Z,100295.59
2018-04-30T00:08:16.809Z,100287.41
2018-04-30T00:10:45.211Z,100286.20
2018-04-30T00:13:13.804Z,100289.20
2018-04-30T00:15:42.149Z,100284.66
2018-04-30T00:18:10.542Z,100278.04
2018-04-30T00:20:39.890Z,100277.31
2018-04-30T00:23:08.345Z,100276.77
2018-04-30T00:25:36.686Z,100285.02
2018-04-30T00:28:05.140Z,100278.88
2018-04-30T00:30:33.631Z,100271.02
2018-04-30T00:33:01.982Z,100265.64
2018-04-30T00:35:30.985Z,100267.83
2018-04-30T00:37:59.354Z,100262.67
2018-04-30T00:40:27.708Z,100255.88
2018-04-30T00:42:56.916Z,100247.58
2018-04-30T00:45:25.284Z,100240.17
2018-04-30T00:47:53.644Z,100238.03
2018-04-30T00:50:23.300Z,100234.08
2018-04-30T00:52:51.663Z,100226.01
2018-04-30T00:55:20.006Z,100220.64
2018-04-30T00:57:48.836Z,100223.31
2018-04-30T01:00:17.208Z,100219.40
2018-04-30T01:02:45.614Z,100222.98
2018-04-30T01:05:14.013Z,100220.64
2018-04-30T01:07:42.391Z,100215.18
2018-04-30T01:10:10.814Z,100216.30
2018-04-30T01:12:39.186Z,100209.94
2018-04-30T01:15:07.531Z,100207.81
2018-04-30T01:17:35.891Z,100201.39
2018-04-30T01:20:04.528Z,100201.03
2018-04-30T01:22:32.869Z,100191.20
2018-04-30T01:25:01.238Z,100190.05
2018-04-30T01:27:29.617Z,100183.91
2018-04-30T01:29:57.982Z,100178.09
2018-04-30T01:32:26.340Z,100173.24
2018-04-30T01:34:54.732Z,100174.92
2018-04-30T01:37:23.083Z,100159.46
2018-04-30T01:39:51.441Z,100161.36
2018-04-30T01:42:19.855Z,100162.66
2018-04-30T01:44:48.230Z,100163.15
2018-04-30T01:47:16.586Z,100152.36
2018-04-30T01:49:45.841Z,100147.55
2018-04-30T01:52:14.261Z,100139.52
2018-04-30T01:54:42.631Z,100140.30
2018-04-30T01:57:11.564Z,100125.00
2018-04-30T01:59:39.930Z,100120.34
2018-04-30T02:02:08.371Z,100116.10
2018-04-30T02:04:36.777Z,100107.74
2018-04-30T02:07:05.108Z,100115.11
2018-04-30T02:09:34.477Z,100110.20
2018-04-30T02:12:02.895Z,100092.36
2018-04-30T02:14:31.235Z,100090.33
2018-04-30T02:16:59.604Z,100088.96
2018-04-30T02:19:27.948Z,100077.11
2018-04-30T02:21:56.296Z,100076.94
2018-04-30T02:24:24.621Z,100069.62
2018-04-30T02:26:53.050Z,100059.08
2018-04-30T02:29:21.366Z,100060.16
2018-04-30T02:31:49.710Z,100055.83
2018-04-30T02:34:18.116Z,100036.14
2018-04-30T02:36:46.582Z,100030.82
2018-04-30T02:39:14.980Z,100016.92
2018-04-30T02:41:44.153Z,100004.20
2018-04-30T02:44:12.550Z,99997.56
2018-04-30T02:46:40.938Z,99986.27
2018-04-30T02:49:09.345Z,99975.81
2018-04-30T02:51:37.897Z,99981.81
2018-04-30T02:54:06.268Z,99970.48
2018-04-30T02:56:35.002Z,99967.44
2018-04-30T02:59:03.410Z,99960.30
2018-04-30T03:01:32.787Z,99944.61
2018-04-30T03:04:02.557Z,99949.02
2018-04-30T03:06:30.894Z,99945.67
2018-04-30T03:08:59.230Z,99935.50
2018-04-30T03:11:28.009Z,99922.36
2018-04-30T03:13:56.402Z,99912.09
2018-04-30T03:16:24.742Z,99908.45
2018-04-30T03:18:53.118Z,99908.65
2018-04-30T03:21:22.458Z,99904.88
2018-04-30T03:23:50.810Z,99908.78
2018-04-30T03:26:19.870Z,99898.93
2018-04-30T03:28:48.251Z,99895.97
2018-04-30T03:31:16.623Z,99889.84
2018-04-30T03:33:45.374Z,99889.14
2018-04-30T03:36:13.718Z,99873.72
2018-04-30T03:38:42.137Z,99868.87
2018-04-30T03:41:10.625Z,99862.63
2018-04-30T03:43:39.061Z,99854.36
2018-04-30T03:46:07.370Z,99864.47
2018-04-30T03:48:35.866Z,99859.16
2018-04-30T03:51:04.227Z,99852.48
2018-04-30T03:53:32.576Z,99841.89
2018-04-30T03:56:01.768Z,99833.60
2018-04-30T03:58:30.167Z,99828.77
2018-04-30T04:01:10.444Z,99817.59
2018-04-30T04:03:50.748Z,99808.39
2018-04-30T04:06:31.241Z,99795.48
2018-04-30T04:09:00.404Z,99791.12
2018-04-30T04:11:28.748Z,99785.92
2018-04-30T04:13:57.176Z,99768.55
2018-04-30T04:16:25.610Z,99755.28
2018-04-30T04:18:53.967Z,99746.91
2018-04-30T04:21:22.414Z,99737.19
2018-04-30T04:23:51.821Z,99734.84
2018-04-30T04:26:20.192Z,99736.59
2018-04-30T04:28:48.698Z,99721.99
2018-04-30T04:31:17.989Z,99718.38
2018-04-30T04:33:46.357Z,99709.63
2018-04-30T04:36:15.443Z,99715.12
2018-04-30T04:38:43.881Z,99715.00
2018-04-30T04:41:12.269Z,99699.47
2018-04-30T04:43:40.676Z,99697.84
2018-04-30T04:46:09.025Z,99695.14
2018-04-30T04:48:37.380Z,99683.55
2018-04-30T04:51:06.446Z,99686.85
2018-04-30T04:53:34.784Z,99687.80
2018-04-30T04:56:03.975Z,99683.44
2018-04-30T04:58:32.326Z,99667.27
2018-04-30T05:01:00.697Z,99655.75
2018-04-30T05:03:29.052Z,99652.54
2018-04-30T05:05:57.457Z,99646.77
2018-04-30T05:08:25.906Z,99665.12
2018-04-30T05:10:54.279Z,99654.23
2018-04-30T05:13:23.161Z,99642.00
2018-04-30T05:15:51.479Z,99635.87
2018-04-30T05:18:19.938Z,99627.95
2018-04-30T05:20:48.779Z,99614.25
2018-04-30T05:23:17.132Z,99623.45
2018-04-30T05:25:45.508Z,99639.16
2018-04-30T05:28:14.741Z,99634.78
2018-04-30T05:30:43.137Z,99624.02
2018-04-30T05:33:11.681Z,99632.02
2018-04-30T05:35:41.293Z,99624.16
2018-04-30T05:38:09.775Z,99618.27
2018-04-30T05:40:39.082Z,99622.24
2018-04-30T05:43:08.988Z,99622.55
2018-04-30T05:45:37.430Z,99609.16
2018-04-30T05:48:05.856Z,99598.74
2018-04-30T05:50:34.292Z,99598.55
2018-04-30T05:53:02.654Z,99587.08
2018-04-30T05:55:30.997Z,99577.60
2018-04-30T05:57:59.823Z,99573.78
2018-04-30T06:00:28.292Z,99573.79
2018-04-30T06:02:56.558Z,99562.59
2018-04-30T06:05:24.955Z,99557.72
2018-04-30T06:07:53.355Z,99530.44
2018-04-30T06:10:21.716Z,99528.27
2018-04-30T06:12:50.170Z,99507.81
2018-04-30T06:15:18.618Z,99513.58
2018-04-30T06:17:47.003Z,99504.22
2018-04-30T06:20:16.211Z,99475.80
2018-04-30T06:22:44.649Z,99471.55
2018-04-30T06:25:13.070Z,99464.41
2018-04-30T06:27:42.202Z,99453.13
2018-04-30T06:30:10.568Z,99452.22
2018-04-30T06:32:38.974Z,99447.63
2018-04-30T06:35:07.421Z,99440.83
2018-04-30T06:37:35.755Z,99443.89
2018-04-30T06:40:04.269Z,99435.63
2018-04-30T06:42:33.060Z,99430.06
2018-04-30T06:45:01.416Z,99431.59
2018-04-30T06:47:29.780Z,99440.87
2018-04-30T06:49:58.891Z,99430.36
2018-04-30T06:52:27.233Z,99434.45
2018-04-30T06:57:47.729Z,99447.46
2018-04-30T07:00:16.161Z,99461.90
2018-04-30T07:02:44.509Z,99496.09
2018-04-30T07:05:13.740Z,99526.03
2018-04-30T07:07:42.125Z,99540.53
2018-04-30T07:10:10.636Z,99555.85
2018-04-30T07:12:39.087Z,99579.91
2018-04-30T07:15:07.439Z,99599.86
2018-04-30T07:17:35.864Z,99590.63
2018-04-30T07:20:04.940Z,99594.15
2018-04-30T07:22:33.206Z,99582.63
2018-04-30T07:25:01.550Z,99560.55
2018-04-30T07:27:30.196Z,99556.47
2018-04-30T07:29:58.673Z,99533.97
2018-04-30T07:32:26.983Z,99526.94
2018-04-30T07:34:55.350Z,99539.37
2018-04-30T07:37:23.731Z,99527.70
2018-04-30T07:39:52.088Z,99524.28
2018-04-30T07:42:20.469Z,99507.58
2018-04-30T07:44:48.856Z,99497.56
2018-04-30T07:47:17.272Z,99516.98
2018-04-30T07:49:45.851Z,99530.73
2018-04-30T07:52:14.195Z,99543.72
2018-04-30T07:54:42.621Z,99519.42
2018-04-30T07:57:11.212Z,99521.20
2018-04-30T07:59:39.569Z,99526.14
2018-04-30T08:02:07.930Z,99507.88
2018-04-30T08:04:36.433Z,99518.58
2018-04-30T08:07:04.811Z,99524.88
2018-04-30T08:09:33.168Z,99505.97
2018-04-30T08:12:01.544Z,99538.53
2018-04-30T08:14:29.890Z,99541.60
2018-04-30T08:16:58.228Z,99526.69
2018-04-30T08:19:26.951Z,99534.72
2018-04-30T08:21:55.309Z,99554.73
2018-04-30T08:24:23.640Z,99540.41
2018-04-30T08:26:52.927Z,99509.69
2018-04-30T08:29:21.250Z,99504.84
2018-04-30T08:31:49.685Z,99524.78
2018-04-30T08:34:18.864Z,99520.00
2018-04-30T08:36:47.273Z,99526.93
2018-04-30T08:39:15.627Z,99519.66
2018-04-30T08:41:44.068Z,99517.45
2018-04-30T08:44:13.533Z,99522.36
2018-04-30T08:46:42.016Z,99510.95
2018-04-30T08:49:10.410Z,99516.33
2018-04-30T08:51:38.847Z,99517.80
2018-04-30T08:54:07.559Z,99508.80
2018-04-30T08:56:35.986Z,99513.19
2018-04-30T08:59:04.519Z,99508.98
2018-04-30T09:01:32.853Z,99511.80
2018-04-30T09:04:01.389Z,99499.41
2018-04-30T09:06:29.737Z,99502.20
2018-04-30T09:08:58.095Z,99507.20
2018-04-30T09:11:26.457Z,99503.51
2018-04-30T09:13:54.805Z,99507.48
2018-04-30T09:16:23.150Z,99518.16
2018-04-30T09:18:51.538Z,99500.97
2018-04-30T09:21:19.928Z,99501.69
2018-04-30T09:23:49.293Z,99484.44
2018-04-30T09:26:18.865Z,99491.98
2018-04-30T09:28:47.228Z,99492.48
2018-04-30T09:31:15.616Z,99490.51
2018-04-30T09:33:44.076Z,99488.05
2018-04-30T09:36:12.501Z,99488.02
2018-04-30T09:38:40.890Z,99486.25
2018-04-30T09:41:10.135Z,99486.52
2018-04-30T09:43:38.529Z,99485.21
2018-04-30T09:46:06.882Z,99490.03
2018-04-30T09:48:35.329Z,99500.69
2018-04-30T09:51:03.737Z,99493.03
2018-04-30T09:53:32.112Z,99481.58
2018-04-30T09:56:00.461Z,99479.66
2018-04-30T09:58:28.789Z,99479.69
2018-04-30T10:00:57.153Z,99481.00
2018-04-30T10:03:26.104Z,99471.59
2018-04-30T10:05:54.486Z,99483.27
2018-04-30T10:08:22.863Z,99481.14
2018-04-30T10:10:51.869Z,99486.12
2018-04-30T10:13:20.202Z,99485.06
2018-04-30T10:15:49.277Z,99489.67
2018-04-30T10:18:18.218Z,99488.78
2018-04-30T10:20:46.594Z,99487.66
2018-04-30T10:23:14.967Z,99488.69
2018-04-30T10:25:45.100Z,99495.98
2018-04-30T10:28:13.499Z,99504.44
2018-04-30T10:30:41.887Z,99497.39
2018-04-30T10:33:10.276Z,99503.04
2018-04-30T10:35:38.604Z,99507.66
2018-04-30T10:38:07.015Z,99512.56
2018-04-30T10:40:36.184Z,99516.20
2018-04-30T10:43:04.539Z,99516.89
2018-04-30T10:45:32.886Z,99517.44
2018-04-30T10:48:01.475Z,99517.52
2018-04-30T10:50:29.815Z,99520.20
2018-04-30T10:52:58.135Z,99525.64
2018-04-30T10:55:26.751Z,99521.76
2018-04-30T10:57:55.094Z,99516.56
2018-04-30T11:00:23.431Z,99520.12
2018-04-30T11:02:51.822Z,99525.60
2018-04-30T11:05:20.189Z,99522.77
2018-04-30T11:07:48.554Z,99520.91
2018-04-30T11:10:18.033Z,99514.20
2018-04-30T11:12:46.435Z,99505.91
2018-04-30T11:15:14.807Z,99514.20
2018-04-30T11:17:43.455Z,99512.45
2018-04-30T11:20:11.779Z,99511.66
2018-04-30T11:22:40.341Z,99508.27
2018-04-30T11:25:09.639Z,99513.34
2018-04-30T11:27:38.027Z,99510.81
2018-04-30T11:30:06.414Z,99505.84
2018-04-30T11:32:34.878Z,99501.47
2018-04-30T11:35:03.221Z,99511.23
2018-04-30T11:37:31.553Z,99501.11
2018-04-30T11:40:00.037Z,99506.30
2018-04-30T11:42:28.361Z,99513.42
2018-04-30T11:44:56.745Z,99514.66
2018-04-30T11:47:25.485Z,99520.20
2018-04-30T11:49:53.874Z,99517.00
2018-04-30T11:52:22.205Z,99516.86
2018-04-30T11:54:50.723Z,99510.58
2018-04-30T11:57:19.195Z,99523.26
2018-04-30T11:59:47.570Z,99520.16
2018-04-30T12:02:16.050Z,99515.69
2018-04-30T12:04:44.408Z,99512.50
2018-04-30T12:07:12.874Z,99522.92
2018-04-30T12:09:41.448Z,99525.62
2018-04-30T12:12:09.841Z,99532.92
2018-04-30T12:14:38.164Z,99539.30
2018-04-30T12:17:06.636Z,99541.93
2018-04-30T12:19:35.095Z,99546.05
2018-04-30T12:22:03.509Z,99550.75
2018-04-30T12:24:33.372Z,99556.86
2018-04-30T12:27:01.747Z,99560.48
2018-04-30T12:29:30.106Z,99558.97
2018-04-30T12:31:58.473Z,99566.50
2018-04-30T12:34:26.811Z,99572.72
2018-04-30T12:36:55.132Z,99578.48
2018-04-30T12:39:23.672Z,99583.03
2018-04-30T12:41:52.064Z,99607.72
2018-04-30T12:44:20.420Z,99616.23
2018-04-30T12:46:48.933Z,99613.55
2018-04-30T12:49:17.351Z,99610.28
2018-04-30T12:51:45.791Z,99615.77
2018-04-30T12:54:14.751Z,99604.17
2018-04-30T12:56:43.162Z,99611.78
2018-04-30T12:59:11.563Z,99609.45
2018-04-30T13:01:40.742Z,99617.01
2018-04-30T13:04:09.151Z,99627.69
2018-04-30T13:06:37.527Z,99627.47
2018-04-30T13:09:05.898Z,99632.42
2018-04-30T13:11:34.288Z,99635.45
2018-04-30T13:14:02.649Z,99634.97
2018-04-30T13:16:31.006Z,99629.47
2018-04-30T13:18:59.389Z,99637.98
2018-04-30T13:21:27.705Z,99632.85
2018-04-30T13:23:56.094Z,99634.20
2018-04-30T13:26:24.525Z,99640.58
2018-04-30T13:28:52.953Z,99638.31
2018-04-30T13:31:22.149Z,99634.80
2018-04-30T13:33:50.559Z,99638.06
2018-04-30T13:36:19.043Z,99643.78
2018-04-30T13:38:47.955Z,99645.29
2018-04-30T13:41:16.317Z,99642.01
2018-04-30T13:43:44.755Z,99649.44
2018-04-30T13:46:13.242Z,99647.11
2018-04-30T13:48:41.626Z,99642.53
2018-04-30T13:51:10.033Z,99641.78
2018-04-30T13:53:39.363Z,99643.50
2018-04-30T13:56:07.741Z,99645.19
2018-04-30T13:58:36.121Z,99660.34
2018-04-30T14:01:04.510Z,99654.22
2018-04-30T14:03:32.886Z,99650.95
2018-04-30T14:06:01.258Z,99655.44
2018-04-30T14:08:29.637Z,99652.50
2018-04-30T14:10:58.009Z,99651.56
2018-04-30T14:13:26.391Z,99654.92
2018-04-30T14:15:55.034Z,99665.84
2018-04-30T14:18:23.386Z,99662.37
2018-04-30T14:20:51.714Z,99658.42
2018-04-30T14:23:21.693Z,99653.72
2018-04-30T14:25:50.155Z,99653.34
2018-04-30T14:28:18.513Z,99655.55
2018-04-30T14:30:46.971Z,99659.91
2018-04-30T14:33:15.415Z,99673.97
2018-04-30T14:35:43.854Z,99666.97
2018-04-30T14:38:12.274Z,99665.03
2018-04-30T14:40:40.655Z,99665.69
2018-04-30T14:43:09.136Z,99663.93
2018-04-30T14:45:38.126Z,99666.02
2018-04-30T14:48:06.511Z,99676.23
2018-04-30T14:50:34.845Z,99689.94
2018-04-30T14:53:03.249Z,99695.06
2018-04-30T14:55:31.619Z,99699.39
2018-04-30T14:57:59.938Z,99695.11
2018-04-30T15:00:29.209Z,99701.52
2018-04-30T15:02:57.953Z,99706.73
2018-04-30T15:05:26.405Z,99703.58
2018-04-30T15:07:55.555Z,99697.22
2018-04-30T15:10:24.002Z,99693.45
2018-04-30T15:12:52.420Z,99696.23
2018-04-30T15:15:20.909Z,99699.13
2018-04-30T15:17:49.332Z,99699.15
2018-04-30T15:20:17.705Z,99697.08
2018-04-30T15:22:47.152Z,99696.30
2018-04-30T15:25:15.530Z,99704.36
2018-04-30T15:27:43.978Z,99709.80
2018-04-30T15:30:14.266Z,99714.58
2018-04-30T15:32:44.318Z,99709.80
2018-04-30T15:35:13.919Z,99714.19
2018-04-30T15:37:43.396Z,99714.87
2018-04-30T15:40:12.074Z,99707.70
2018-04-30T15:42:42.100Z,99722.83
2018-04-30T15:45:12.930Z,99726.73
2018-04-30T15:47:42.952Z,99723.84
2018-04-30T15:50:15.338Z,99731.98
2018-04-30T15:52:44.303Z,99723.86
2018-04-30T15:55:12.715Z,99735.86
2018-04-30T15:57:41.104Z,99737.98
2018-04-30T16:00:09.591Z,99741.47
2018-04-30T16:02:37.970Z,99744.55
2018-04-30T16:05:08.273Z,99728.16
2018-04-30T16:07:36.621Z,99731.27
2018-04-30T16:10:04.938Z,99727.69
2018-04-30T16:12:33.511Z,99731.38
2018-04-30T16:15:01.963Z,99734.13
2018-04-30T16:17:30.329Z,99725.46
2018-04-30T16:19:58.720Z,99729.67
2018-04-30T16:22:27.076Z,99734.46
2018-04-30T16:24:55.499Z,99732.56
2018-04-30T16:27:24.495Z,99732.89
2018-04-30T16:29:52.809Z,99731.89
2018-04-30T16:32:21.164Z,99722.73
2018-04-30T16:34:49.637Z,99719.20
2018-04-30T16:37:18.327Z,99721.72
2018-04-30T16:39:46.780Z,99716.38
2018-04-30T16:42:16.754Z,99717.09
2018-04-30T16:44:46.234Z,99719.06
2018-04-30T16:47:14.696Z,99723.80
2018-04-30T16:49:43.097Z,99723.07
2018-04-30T16:52:11.632Z,99729.31
2018-04-30T16:54:40.048Z,99728.59
2018-04-30T16:57:08.616Z,99729.47
2018-04-30T16:59:36.976Z,99719.34
2018-04-30T17:02:05.362Z,99720.30
2018-04-30T17:04:34.833Z,99721.56
2018-04-30T17:07:03.266Z,99720.88
2018-04-30T17:09:31.589Z,99723.41
2018-04-30T17:12:00.038Z,99724.33
2018-04-30T17:14:28.382Z,99731.17
2018-04-30T17:16:56.749Z,99724.69
2018-04-30T17:19:25.651Z,99724.44
2018-04-30T17:21:54.036Z,99725.45
2018-04-30T17:24:22.566Z,99726.29
2018-04-30T17:26:50.956Z,99726.63
2018-04-30T17:29:19.671Z,99730.66
2018-04-30T17:31:48.279Z,99735.71
2018-04-30T17:34:17.144Z,99739.55
2018-04-30T17:36:45.802Z,99736.11
2018-04-30T17:39:14.296Z,99735.06
2018-04-30T17:41:42.796Z,99744.70
2018-04-30T17:44:12.308Z,99741.25
2018-04-30T17:46:41.357Z,99745.00
2018-04-30T17:49:10.760Z,99756.10
2018-04-30T17:51:40.035Z,99760.89
2018-04-30T17:54:09.025Z,99756.94
2018-04-30T17:56:37.468Z,99762.33
2018-04-30T17:59:05.930Z,99766.44
2018-04-30T18:01:35.637Z,99764.00
2018-04-30T18:04:04.540Z,99770.64
2018-04-30T18:06:32.886Z,99771.56
2018-04-30T18:09:01.213Z,99774.17
2018-04-30T18:11:29.802Z,99779.51
2018-04-30T18:13:58.247Z,99779.47
2018-04-30T18:16:26.676Z,99773.25
2018-04-30T18:18:55.041Z,99774.13
2018-04-30T18:21:23.515Z,99784.09
2018-04-30T18:23:52.019Z,99781.98
2018-04-30T18:26:20.633Z,99777.82
2018-04-30T18:28:49.064Z,99786.55
2018-04-30T18:31:17.610Z,99783.69
2018-04-30T18:33:49.060Z,99793.97
2018-04-30T18:36:17.749Z,99789.84
2018-04-30T18:38:46.453Z,99798.41
2018-04-30T18:41:15.439Z,99795.42
2018-04-30T18:43:44.257Z,99798.87
2018-04-30T18:46:13.491Z,99796.81
2018-04-30T18:48:43.020Z,99795.47
2018-04-30T18:51:11.541Z,99795.22
2018-04-30T18:53:40.135Z,99797.34
2018-04-30T18:56:09.874Z,99805.91
2018-04-30T18:58:38.532Z,99804.73
2018-04-30T19:01:07.116Z,99815.31
2018-04-30T19:03:36.002Z,99820.60
2018-04-30T19:06:04.410Z,99811.30
2018-04-30T19:08:32.749Z,99820.20
2018-04-30T19:11:03.533Z,99831.71
2018-04-30T19:13:32.208Z,99833.37
2018-04-30T19:16:00.680Z,99831.19
2018-04-30T19:18:29.677Z,99836.89
2018-04-30T19:20:58.009Z,99841.55
2018-04-30T19:23:26.432Z,99842.80
2018-04-30T19:25:54.868Z,99845.08
2018-04-30T19:28:26.677Z,99852.30
2018-04-30T19:30:55.477Z,99850.68
2018-04-30T19:33:23.829Z,99850.59
2018-04-30T19:35:52.415Z,99851.36
2018-04-30T19:38:22.837Z,99856.00
2018-04-30T19:40:53.943Z,99850.08
2018-04-30T19:43:22.426Z,99857.75
2018-04-30T19:45:50.990Z,99853.27
2018-04-30T19:48:19.545Z,99854.88
2018-04-30T19:50:48.649Z,99851.33
2018-04-30T19:53:17.729Z,99854.20
2018-04-30T19:55:46.208Z,99861.02
2018-04-30T19:58:14.720Z,99853.40
2018-04-30T20:00:44.092Z,99848.63
2018-04-30T20:03:12.573Z,99853.92
2018-04-30T20:05:41.728Z,99851.63
2018-04-30T20:08:10.209Z,99855.73
2018-04-30T20:10:38.683Z,99856.14
2018-04-30T20:13:07.062Z,99857.09
2018-04-30T20:15:35.412Z,99851.06
2018-04-30T20:18:03.764Z,99858.35
2018-04-30T20:20:32.210Z,99862.80
2018-04-30T20:23:00.640Z,99864.44
2018-04-30T20:25:29.067Z,99859.77
2018-04-30T20:27:57.516Z,99857.11
2018-04-30T20:30:25.870Z,99855.42
2018-04-30T20:32:54.220Z,99859.03
2018-04-30T20:35:22.617Z,99857.47
2018-04-30T20:37:51.475Z,99858.22
2018-04-30T20:40:19.812Z,99859.31
2018-04-30T20:42:48.287Z,99858.63
2018-04-30T20:45:17.059Z,99859.45
2018-04-30T20:47:45.478Z,99851.13
2018-04-30T20:50:14.141Z,99855.83
2018-04-30T20:52:42.663Z,99856.02
2018-04-30T20:55:11.145Z,99856.60
2018-04-30T20:57:39.693Z,99854.34
2018-04-30T21:00:09.674Z,99856.42
2018-04-30T21:02:37.997Z,99855.55
2018-04-30T21:05:06.432Z,99853.36
2018-04-30T21:07:35.609Z,99857.01
2018-04-30T21:10:03.967Z,99857.16
2018-04-30T21:12:32.288Z,99852.25
2018-04-30T21:15:00.686Z,99858.54
2018-04-30T21:17:29.170Z,99860.68
2018-04-30T21:19:57.401Z,99859.52
2018-04-30T21:22:26.592Z,99857.56
2018-04-30T21:24:54.957Z,99860.94
2018-04-30T21:27:23.356Z,99854.88
2018-04-30T21:29:51.855Z,99863.57
2018-04-30T21:32:20.261Z,99856.87
2018-04-30T21:34:48.623Z,99854.53
2018-04-30T21:37:17.282Z,99851.44
2018-04-30T21:39:45.824Z,99851.94
2018-04-30T21:42:14.142Z,99842.55
2018-04-30T21:44:43.430Z,99840.86
2018-04-30T21:47:11.886Z,99843.05
2018-04-30T21:49:40.560Z,99843.77
2018-04-30T21:52:10.996Z,99845.03
2018-04-30T21:54:39.659Z,99840.02
2018-04-30T21:57:08.193Z,99834.88
2018-04-30T21:59:36.633Z,99835.10
2018-04-30T22:02:04.949Z,99827.83
2018-04-30T22:04:36.586Z,99832.14
2018-04-30T22:07:05.019Z,99827.01
2018-04-30T22:09:33.427Z,99835.74
2018-04-30T22:12:01.935Z,99827.28
2018-04-30T22:14:30.259Z,99830.03
2018-04-30T22:16:58.673Z,99816.44
2018-04-30T22:19:26.999Z,99820.95
2018-04-30T22:21:55.354Z,99820.26
2018-04-30T22:24:23.697Z,99825.06
2018-04-30T22:26:52.039Z,99822.31
2018-04-30T22:29:20.465Z,99825.48
2018-04-30T22:31:50.109Z,99828.16
2018-04-30T22:34:18.542Z,99829.72
2018-04-30T22:36:47.049Z,99827.89
2018-04-30T22:39:15.347Z,99828.47
2018-04-30T22:41:43.709Z,99820.36
2018-04-30T22:44:14.563Z,99822.05
2018-04-30T22:46:42.932Z,99824.05
2018-04-30T22:49:11.579Z,99816.30
2018-04-30T22:51:40.151Z,99828.89
2018-04-30T22:54:08.549Z,99821.16
2018-04-30T22:56:36.897Z,99825.23
2018-04-30T22:59:05.237Z,99817.70
2018-04-30T23:01:33.749Z,99813.45
2018-04-30T23:04:02.557Z,99815.71
2018-04-30T23:06:31.673Z,99807.98
2018-04-30T23:08:59.995Z,99809.31
2018-04-30T23:11:28.380Z,99817.59
2018-04-30T23:13:56.737Z,99813.44
2018-04-30T23:16:25.143Z,99815.48
2018-04-30T23:18:53.446Z,99814.01
2018-04-30T23:21:22.616Z,99821.33
2018-04-30T23:23:50.996Z,99827.03
2018-04-30T23:26:19.338Z,99827.17
2018-04-30T23:28:47.851Z,99824.61
2018-04-30T23:31:16.258Z,99828.48
2018-04-30T23:33:44.645Z,99818.70
2018-04-30T23:36:13.275Z,99826.58
2018-04-30T23:38:41.977Z,99815.84
2018-04-30T23:41:10.334Z,99806.76
2018-04-30T23:43:39.140Z,99801.69
2018-04-30T23:46:07.496Z,99798.30
2018-04-30T23:48:35.828Z,99803.19
2018-04-30T23:51:05.237Z,99800.78
2018-04-30T23:53:33.582Z,99798.47
2018-04-30T23:56:01.936Z,99784.95
2018-04-30T23:58:30.332Z,99781.98
